Time;durP1;ratioP1;P1;durP2;ratioP2;P2;SDS_P1;SDS_P2;PMS_P1;PMS_P2;Temp;Humidity;BMP_temperature;BMP_pressure;BME280_temperature;BME280_humidity;BME280_pressure;Samples;Min_cycle;Max_cycle;Signal;HPM_P1;HPM_P2
2022/12/20 00:01:13;;;;;;;82.13;38.13;;;;;;;-1.73;100.00;97346.00;4959712;28;20038;-65
2022/12/20 00:03:43;;;;;;;80.28;37.10;;;;;;;-1.78;100.00;97349.50;4963713;28;20049;-66
2022/12/20 00:06:09;;;;;;;75.30;36.25;;;;;;;-1.70;100.00;97353.50;4958086;28;20061;-67
2022/12/20 00:08:35;;;;;;;75.57;35.47;;;;;;;-1.59;100.00;97335.50;4965725;28;20050;-67
2022/12/20 00:11:03;;;;;;;78.60;34.97;;;;;;;-1.73;100.00;97343.31;4965368;28;20039;-67
2022/12/20 00:13:29;;;;;;;71.88;35.72;;;;;;;-1.68;100.00;97345.19;4964726;28;20047;-67
2022/12/20 00:16:06;;;;;;;74.03;35.83;;;;;;;-1.63;100.00;97348.66;4966902;28;20043;-67
2022/12/20 00:18:31;;;;;;;82.35;34.35;;;;;;;-1.63;100.00;97337.94;4972982;28;20047;-66
2022/12/20 00:20:58;;;;;;;74.93;33.35;;;;;;;-1.56;100.00;97340.34;4969324;28;20050;-67
2022/12/20 00:23:23;;;;;;;65.25;32.92;;;;;;;-1.57;100.00;97350.28;4959443;28;20538;-67
2022/12/20 00:25:49;;;;;;;70.55;34.22;;;;;;;-1.56;100.00;97343.81;4964929;28;20412;-67
2022/12/20 00:28:14;;;;;;;72.93;33.97;;;;;;;-1.52;100.00;97341.38;4960243;28;20134;-66
2022/12/20 00:30:40;;;;;;;65.78;33.42;;;;;;;-1.53;100.00;97334.44;4946955;28;20039;-66
2022/12/20 00:33:05;;;;;;;67.35;32.47;;;;;;;-1.51;100.00;97336.81;4960155;28;20039;-65
2022/12/20 00:35:31;;;;;;;66.95;33.20;;;;;;;-1.46;100.00;97337.63;4963533;28;20148;-68
2022/12/20 00:37:56;;;;;;;71.32;31.60;;;;;;;-1.27;100.00;97337.81;4964929;28;20066;-67
2022/12/20 00:40:21;;;;;;;64.15;30.98;;;;;;;-1.21;100.00;97339.41;4967084;28;22140;-67
2022/12/20 00:42:47;;;;;;;62.05;29.73;;;;;;;-1.19;100.00;97341.81;4976310;28;20039;-67
2022/12/20 00:45:13;;;;;;;63.78;31.38;;;;;;;-1.11;100.00;97332.41;4958810;28;20070;-68
2022/12/20 00:47:38;;;;;;;62.03;30.33;;;;;;;-1.18;100.00;97333.47;4963465;28;20051;-67
2022/12/20 00:50:05;;;;;;;63.90;31.25;;;;;;;-1.24;100.00;97336.47;4960518;28;20043;-66
2022/12/20 00:52:30;;;;;;;58.13;29.05;;;;;;;-1.17;100.00;97327.03;4964254;28;20053;-68
2022/12/20 00:54:55;;;;;;;59.33;30.65;;;;;;;-1.17;100.00;97332.41;4963109;28;20051;-67
2022/12/20 00:57:21;;;;;;;61.72;30.55;;;;;;;-1.22;100.00;97327.06;4957896;28;21145;-67
2022/12/20 00:59:46;;;;;;;54.58;28.35;;;;;;;-1.20;100.00;97324.91;4964217;28;20050;-66
2022/12/20 01:02:12;;;;;;;54.83;30.33;;;;;;;-1.10;100.00;97324.03;4959197;28;20336;-67
2022/12/20 01:04:37;;;;;;;56.95;28.95;;;;;;;-1.08;100.00;97313.84;4965089;28;20049;-67
2022/12/20 01:07:03;;;;;;;56.78;27.95;;;;;;;-1.02;100.00;97318.09;4960155;28;20404;-66
2022/12/20 01:09:28;;;;;;;56.50;28.50;;;;;;;-0.99;100.00;97324.78;4959523;28;20407;-67
2022/12/20 01:11:53;;;;;;;56.85;28.45;;;;;;;-1.03;100.00;97324.53;4963791;28;20058;-66
2022/12/20 01:14:19;;;;;;;57.25;29.80;;;;;;;-1.02;100.00;97322.69;4957265;28;20046;-68
2022/12/20 01:16:46;;;;;;;59.50;28.75;;;;;;;-0.96;100.00;97325.03;4983441;28;20546;-69
2022/12/20 01:19:14;;;;;;;62.40;30.02;;;;;;;-0.93;100.00;97333.66;4980772;28;20053;-67
2022/12/20 01:21:43;;;;;;;58.38;28.02;;;;;;;-0.98;100.00;97331.78;4982627;28;20046;-68
2022/12/20 01:24:17;;;;;;;61.78;28.25;;;;;;;-1.07;100.00;97330.75;4978404;28;20049;-67
2022/12/20 01:26:43;;;;;;;61.05;28.88;;;;;;;-1.09;100.00;97325.66;4986935;28;20066;-69
2022/12/20 01:29:09;;;;;;;52.25;28.27;;;;;;;-1.04;100.00;97314.09;4977902;28;20177;-68
2022/12/20 01:31:34;;;;;;;53.90;27.13;;;;;;;-1.03;100.00;97321.06;4983535;28;20554;-68
2022/12/20 01:34:00;;;;;;;53.92;27.88;;;;;;;-0.99;100.00;97312.19;4977166;28;20511;-68
2022/12/20 01:36:29;;;;;;;61.05;28.15;;;;;;;-1.02;100.00;97307.34;4974546;28;20391;-68
2022/12/20 01:39:02;;;;;;;57.55;29.02;;;;;;;-1.20;100.00;97316.03;4963782;28;20165;-69
2022/12/20 01:41:30;;;;;;;63.88;28.13;;;;;;;-1.31;100.00;97319.84;4977154;28;20447;-69
2022/12/20 01:44:01;;;;;;;55.20;28.58;;;;;;;-1.21;100.00;97323.28;4987171;28;20446;-69
2022/12/20 01:46:30;;;;;;;60.92;28.40;;;;;;;-1.13;100.00;97321.91;4977306;28;20112;-69
2022/12/20 01:49:05;;;;;;;62.17;29.17;;;;;;;-1.20;100.00;97319.53;4977317;28;20471;-68
2022/12/20 01:51:34;;;;;;;61.58;29.52;;;;;;;-1.61;100.00;97310.78;4973078;28;20392;-68
2022/12/20 01:54:11;;;;;;;70.45;32.10;;;;;;;-1.95;100.00;97306.03;4980458;28;20038;-68
2022/12/20 01:56:39;;;;;;;66.75;30.90;;;;;;;-1.96;100.00;97299.06;4974944;28;20050;-68
2022/12/20 01:59:05;;;;;;;65.55;31.98;;;;;;;-1.91;100.00;97301.72;4969768;28;20050;-68
2022/12/20 02:01:31;;;;;;;66.82;30.45;;;;;;;-1.67;100.00;97301.94;4973571;28;20404;-67
2022/12/20 02:03:57;;;;;;;68.15;30.95;;;;;;;-1.47;100.00;97300.28;4978412;28;20034;-68
2022/12/20 02:06:25;;;;;;;55.80;28.92;;;;;;;-1.39;100.00;97305.91;4968321;28;20117;-67
2022/12/20 02:08:53;;;;;;;64.10;31.83;;;;;;;-1.29;100.00;97305.03;4979117;28;20038;-67
2022/12/20 02:11:43;;;;;;;68.75;30.92;;;;;;;-1.22;100.00;97305.56;4971574;28;20081;-68
2022/12/20 02:14:21;;;;;;;;;;;;;;;-1.27;100.00;97292.13;4989889;28;20157;-68
2022/12/20 02:16:54;;;;;;;57.60;27.38;;;;;;;-1.24;100.00;97288.06;4967206;28;19937;-67
2022/12/20 02:19:38;;;;;;;59.28;28.33;;;;;;;-1.09;100.00;97293.41;4971768;28;20583;-68
2022/12/20 02:22:19;;;;;;;57.38;28.45;;;;;;;-1.09;100.00;97297.97;4973748;28;20161;-66
2022/12/20 02:25:25;;;;;;;57.38;28.65;;;;;;;-1.12;100.00;97290.47;4989662;28;20051;-68
2022/12/20 02:27:59;;;;;;;55.03;25.48;;;;;;;-1.13;100.00;97286.97;4975146;28;20049;-67
2022/12/20 02:30:32;;;;;;;55.60;27.90;;;;;;;-0.99;100.00;97281.78;4978395;28;20049;-68
2022/12/20 02:33:02;;;;;;;55.20;28.55;;;;;;;-0.97;100.00;97271.56;4973023;28;20039;-67
2022/12/20 02:35:32;;;;;;;54.55;27.33;;;;;;;-0.97;100.00;97288.50;4956288;28;20047;-67
2022/12/20 02:38:02;;;;;;;52.10;26.52;;;;;;;-0.98;100.00;97281.50;4961764;28;20093;-67
2022/12/20 02:40:41;;;;;;;54.00;27.02;;;;;;;-0.94;100.00;97289.03;4964175;28;20038;-68
2022/12/20 02:45:14;;;;;;;;;;;;;;;-0.93;100.00;97278.00;4977250;28;20046;-67
2022/12/20 02:45:57;;;;;;;51.50;25.35;;;;;;;-0.87;100.00;97278.75;4968327;28;19914;-68
2022/12/20 02:48:27;;;;;;;56.97;26.90;;;;;;;-0.90;100.00;97282.81;4956477;28;20617;-68
2022/12/20 02:50:57;;;;;;;51.17;25.17;;;;;;;-0.89;100.00;97275.56;4975171;28;20043;-67
2022/12/20 02:53:22;;;;;;;;;;;;;;;-1.00;100.00;97278.28;4975869;28;20545;-68
2022/12/20 02:56:04;;;;;;;46.50;24.08;;;;;;;-0.98;100.00;97278.03;4980309;28;19953;-68
2022/12/20 02:58:38;;;;;;;57.13;27.15;;;;;;;-1.05;100.00;97269.44;4981875;28;20043;-68
2022/12/20 03:01:10;;;;;;;53.30;26.98;;;;;;;-1.02;100.00;97271.59;4977550;28;20046;-69
2022/12/20 03:03:36;;;;;;;51.47;24.95;;;;;;;-0.91;100.00;97275.03;4984430;28;20124;-68
2022/12/20 03:06:03;;;;;;;48.88;25.50;;;;;;;-0.84;100.00;97272.84;4979857;28;20050;-68
2022/12/20 03:08:28;;;;;;;53.50;24.48;;;;;;;-0.80;100.00;97273.88;4978422;28;20039;-67
2022/12/20 03:10:54;;;;;;;52.97;26.00;;;;;;;-0.88;100.00;97272.59;4983172;28;20085;-67
2022/12/20 03:13:23;;;;;;;46.30;24.52;;;;;;;-0.89;100.00;97275.56;4978450;28;20081;-68
2022/12/20 03:15:48;;;;;;;46.17;25.45;;;;;;;-0.89;100.00;97259.41;4981517;28;20038;-68
2022/12/20 03:18:16;;;;;;;56.70;27.30;;;;;;;-1.02;100.00;97252.78;4962572;28;20166;-67
2022/12/20 03:20:43;;;;;;;50.92;25.23;;;;;;;-1.23;100.00;97252.88;4962227;28;20733;-68
2022/12/20 03:23:08;;;;;;;59.53;27.50;;;;;;;-1.52;100.00;97257.31;4957629;28;20445;-68
2022/12/20 03:25:34;;;;;;;51.97;26.13;;;;;;;-1.57;100.00;97255.44;4983674;28;20053;-67
2022/12/20 03:27:59;;;;;;;56.53;28.02;;;;;;;-1.44;100.00;97257.56;4985808;28;20042;-67
2022/12/20 03:30:24;;;;;;;53.80;26.52;;;;;;;-1.32;100.00;97257.22;4977859;28;20046;-67
2022/12/20 03:32:50;;;;;;;52.22;25.15;;;;;;;-1.27;100.00;97256.41;4995073;28;20136;-68
2022/12/20 03:35:15;;;;;;;51.65;24.88;;;;;;;-1.19;100.00;97251.25;4982477;28;20404;-68
2022/12/20 03:37:41;;;;;;;55.88;27.17;;;;;;;-1.08;100.00;97249.31;4985562;28;20414;-67
2022/12/20 03:40:07;;;;;;;50.85;25.75;;;;;;;-0.99;100.00;97246.81;4980725;28;20038;-66
2022/12/20 03:42:33;;;;;;;50.92;25.15;;;;;;;-0.90;100.00;97247.88;4984522;28;20050;-67
2022/12/20 03:44:58;;;;;;;50.08;24.83;;;;;;;-0.82;100.00;97246.47;4974496;28;20039;-67
2022/12/20 03:47:24;;;;;;;47.55;23.73;;;;;;;-0.79;100.00;97241.31;4961356;28;20582;-66
2022/12/20 03:49:50;;;;;;;47.92;23.77;;;;;;;-0.85;100.00;97241.63;4965106;28;20051;-68
2022/12/20 03:52:16;;;;;;;47.97;25.48;;;;;;;-0.79;100.00;97245.91;4944200;28;20050;-69
2022/12/20 03:54:42;;;;;;;48.63;24.75;;;;;;;-0.79;100.00;97240.53;4966155;28;20099;-68
2022/12/20 03:57:07;;;;;;;50.42;24.48;;;;;;;-0.87;100.00;97236.53;4970817;28;20066;-68
2022/12/20 03:59:32;;;;;;;46.63;24.45;;;;;;;-0.99;100.00;97234.19;4970344;28;20077;-68
2022/12/20 04:01:58;;;;;;;47.85;24.85;;;;;;;-0.82;100.00;97228.44;4965730;28;20444;-68
2022/12/20 04:04:23;;;;;;;50.88;24.30;;;;;;;-0.97;100.00;97223.16;4960955;28;20057;-68
2022/12/20 04:06:49;;;;;;;52.28;26.40;;;;;;;-1.18;100.00;97217.09;4949311;28;20110;-68
2022/12/20 04:09:15;;;;;;;53.38;26.13;;;;;;;-1.17;100.00;97226.75;4967017;28;20047;-67
2022/12/20 04:11:40;;;;;;;45.30;24.52;;;;;;;-1.09;100.00;97218.13;4967867;28;20053;-67
2022/12/20 04:14:06;;;;;;;53.83;25.50;;;;;;;-1.02;100.00;97215.13;4962308;28;20474;-66
2022/12/20 04:16:32;;;;;;;55.15;26.23;;;;;;;-0.98;100.00;97205.41;4964987;28;20050;-67
2022/12/20 04:18:58;;;;;;;46.95;24.27;;;;;;;-1.00;100.00;97212.97;4985108;28;20043;-67
2022/12/20 04:21:27;;;;;;;52.08;25.88;;;;;;;-0.90;100.00;97207.53;4976834;28;20613;-66
2022/12/20 04:23:53;;;;;;;50.70;26.73;;;;;;;-0.85;100.00;97201.28;4975184;28;20050;-66
2022/12/20 04:26:19;;;;;;;53.08;25.13;;;;;;;-0.81;100.00;97203.16;4959226;28;20093;-67
2022/12/20 04:28:45;;;;;;;47.28;24.35;;;;;;;-0.75;100.00;97192.34;4964521;28;20097;-66
2022/12/20 04:31:11;;;;;;;50.13;25.05;;;;;;;-0.80;100.00;97195.88;4958188;28;20053;-67
2022/12/20 04:33:37;;;;;;;54.55;26.30;;;;;;;-0.76;100.00;97210.38;4964375;28;20058;-67
2022/12/20 04:36:03;;;;;;;48.35;24.58;;;;;;;-0.78;100.00;97199.88;4958910;28;20492;-67
2022/12/20 04:38:28;;;;;;;48.42;24.10;;;;;;;-0.86;100.00;97207.78;4962761;28;20042;-67
2022/12/20 04:40:55;;;;;;;53.03;25.38;;;;;;;-0.80;100.00;97210.13;4962784;28;20113;-67
2022/12/20 04:43:21;;;;;;;55.90;25.13;;;;;;;-0.88;100.00;97197.28;4958216;28;20051;-67
2022/12/20 04:45:48;;;;;;;50.60;23.83;;;;;;;-0.93;100.00;97204.59;4973554;28;20042;-66
2022/12/20 04:48:14;;;;;;;46.00;22.63;;;;;;;-0.83;100.00;97197.25;4979025;28;20045;-66
2022/12/20 04:50:39;;;;;;;47.85;24.58;;;;;;;-0.72;100.00;97189.09;4983007;28;20070;-68
2022/12/20 04:55:50;;;;;;;40.75;21.52;;;;;;;-0.48;100.00;97199.94;4982412;28;20049;-66
2022/12/20 04:58:15;;;;;;;42.90;22.77;;;;;;;-0.49;100.00;97203.69;4978073;28;20480;-66
2022/12/20 05:00:41;;;;;;;41.75;22.10;;;;;;;-0.49;100.00;97199.13;4982985;28;20066;-66
2022/12/20 05:03:07;;;;;;;44.10;23.45;;;;;;;-0.43;100.00;97194.50;4978960;28;20099;-66
2022/12/20 05:05:32;;;;;;;41.33;22.13;;;;;;;-0.48;100.00;97206.09;4997397;28;20042;-67
2022/12/20 05:07:57;;;;;;;43.63;22.15;;;;;;;-0.43;100.00;97200.69;4983363;28;20050;-67
2022/12/20 05:10:23;;;;;;;48.03;23.98;;;;;;;-0.42;100.00;97204.97;4980621;28;20042;-67
2022/12/20 05:12:49;;;;;;;50.75;23.60;;;;;;;-0.39;100.00;97206.31;4980739;28;20515;-67
2022/12/20 05:15:14;;;;;;;43.85;23.17;;;;;;;-0.43;100.00;97214.16;4978075;28;20488;-68
2022/12/20 05:17:39;;;;;;;45.47;22.80;;;;;;;-0.35;100.00;97198.47;4972505;28;20053;-67
2022/12/20 05:20:06;;;;;;;44.70;22.02;;;;;;;-0.33;100.00;97205.16;4958296;28;20387;-67
2022/12/20 05:28:00;;;;;;;44.00;22.77;;;;;;;-0.42;100.00;97194.19;4963782;28;20050;-67
2022/12/20 05:30:26;;;;;;;47.05;23.73;;;;;;;-0.56;100.00;97200.53;4967635;28;20034;-67
2022/12/20 05:32:51;;;;;;;43.15;23.33;;;;;;;-0.55;100.00;97194.88;4963741;28;20439;-67
2022/12/20 05:35:17;;;;;;;44.88;23.25;;;;;;;-0.66;100.00;97196.84;4957751;28;20035;-68
2022/12/20 05:37:42;;;;;;;46.78;24.88;;;;;;;-0.70;100.00;97181.53;4962256;28;20050;-67
2022/12/20 05:40:09;;;;;;;54.83;25.15;;;;;;;-0.69;100.00;97180.47;4956111;28;20047;-67
2022/12/20 05:42:34;;;;;;;49.20;24.17;;;;;;;-0.73;100.00;97174.03;4959737;28;20035;-66
2022/12/20 05:45:00;;;;;;;44.50;23.27;;;;;;;-0.62;100.00;97179.03;4967373;28;20057;-66
2022/12/20 05:47:26;;;;;;;53.08;26.88;;;;;;;-0.46;100.00;97173.53;4977074;28;20096;-67
2022/12/20 05:49:52;;;;;;;47.05;22.90;;;;;;;-0.50;100.00;97167.91;4980899;28;20042;-65
2022/12/20 05:52:17;;;;;;;45.28;21.65;;;;;;;-0.41;100.00;97176.19;4978932;28;20369;-67
2022/12/20 05:54:42;;;;;;;42.20;21.92;;;;;;;-0.49;100.00;97157.94;4981667;28;20046;-67
2022/12/20 05:57:08;;;;;;;44.42;22.80;;;;;;;-0.54;100.00;97164.19;4973965;28;20504;-67
2022/12/20 05:59:33;;;;;;;46.42;22.08;;;;;;;-0.51;100.00;97152.06;4980072;28;20046;-67
2022/12/20 06:01:59;;;;;;;44.78;23.33;;;;;;;-0.57;100.00;97155.88;4983761;28;20519;-65
2022/12/20 06:04:25;;;;;;;43.00;22.98;;;;;;;-0.57;100.00;97147.81;4978161;28;20046;-66
2022/12/20 06:06:51;;;;;;;46.00;22.05;;;;;;;-0.42;100.00;97153.84;4982406;28;20240;-67
2022/12/20 06:09:16;;;;;;;48.55;23.55;;;;;;;-0.54;100.00;97141.84;4977845;28;20068;-67
2022/12/20 06:11:42;;;;;;;45.90;22.80;;;;;;;-0.65;100.00;97143.84;4981466;28;20513;-67
2022/12/20 06:14:07;;;;;;;50.45;23.63;;;;;;;-0.61;100.00;97148.38;4976801;28;20551;-65
2022/12/20 06:16:32;;;;;;;47.40;22.70;;;;;;;-0.67;100.00;97143.31;4979479;28;20058;-66
2022/12/20 06:18:58;;;;;;;48.58;24.42;;;;;;;-0.67;100.00;97137.94;4981694;28;20046;-67
2022/12/20 06:21:23;;;;;;;51.10;25.20;;;;;;;-0.62;100.00;97140.59;4978051;28;20134;-67
2022/12/20 06:23:48;;;;;;;51.67;24.95;;;;;;;-0.71;100.00;97140.38;4975074;28;20143;-67
2022/12/20 06:26:14;;;;;;;47.65;23.98;;;;;;;-0.69;100.00;97138.22;4958389;28;20050;-67
2022/12/20 06:28:41;;;;;;;46.70;24.25;;;;;;;-0.66;100.00;97142.25;4964058;28;20039;-67
2022/12/20 06:31:09;;;;;;;56.08;27.38;;;;;;;-0.97;100.00;97124.47;4964155;28;20043;-67
2022/12/20 06:33:35;;;;;;;62.30;29.45;;;;;;;-0.87;100.00;97138.91;4969292;28;20043;-67
2022/12/20 06:36:01;;;;;;;58.08;28.85;;;;;;;-0.86;100.00;97135.94;4966182;28;20213;-67
2022/12/20 06:38:27;;;;;;;56.88;28.42;;;;;;;-0.84;100.00;97135.66;4960277;28;20050;-67
2022/12/20 06:40:52;;;;;;;55.08;28.55;;;;;;;-0.79;100.00;97141.81;4962834;28;20515;-66
2022/12/20 06:43:17;;;;;;;52.63;28.45;;;;;;;-0.70;100.00;97133.13;4958471;28;20511;-68
2022/12/20 06:45:43;;;;;;;50.30;24.60;;;;;;;-0.67;100.00;97135.25;4970641;28;20206;-68
2022/12/20 06:48:09;;;;;;;47.30;24.90;;;;;;;-0.61;100.00;97126.06;4988946;28;20050;-69
2022/12/20 06:50:34;;;;;;;44.30;22.65;;;;;;;-0.58;100.00;97133.53;4990454;28;20069;-68
2022/12/20 06:53:00;;;;;;;49.92;23.17;;;;;;;-0.59;100.00;97142.72;4983514;28;20400;-67
2022/12/20 06:55:25;;;;;;;41.03;22.77;;;;;;;-0.67;100.00;97137.94;4975091;28;20472;-68
2022/12/20 06:57:51;;;;;;;42.80;22.02;;;;;;;-0.61;100.00;97137.63;4981314;28;20048;-68
2022/12/20 07:00:17;;;;;;;44.55;22.05;;;;;;;-0.51;100.00;97134.00;4977394;28;20129;-69
2022/12/20 07:02:42;;;;;;;43.92;23.02;;;;;;;-0.58;100.00;97141.63;4982054;28;20050;-68
2022/12/20 07:05:08;;;;;;;45.63;23.33;;;;;;;-0.68;100.00;97139.84;4977187;28;20039;-68
2022/12/20 07:07:33;;;;;;;40.28;20.95;;;;;;;-0.79;100.00;97139.13;4982395;28;20133;-69
2022/12/20 07:09:59;;;;;;;37.25;21.35;;;;;;;-0.76;100.00;97135.03;4985454;28;20109;-68
2022/12/20 07:12:24;;;;;;;38.40;21.40;;;;;;;-0.81;100.00;97133.22;4988805;28;20123;-68
2022/12/20 07:14:50;;;;;;;43.15;21.75;;;;;;;-0.92;100.00;97136.25;4994586;28;20078;-68
2022/12/20 07:17:16;;;;;;;47.03;23.83;;;;;;;-0.97;100.00;97127.16;4979441;28;20046;-68
2022/12/20 07:19:42;;;;;;;64.47;34.53;;;;;;;-1.20;100.00;97128.69;4966528;28;20042;-67
2022/12/20 07:22:07;;;;;;;52.72;27.38;;;;;;;-1.34;100.00;97130.38;4961040;28;20039;-68
2022/12/20 07:24:33;;;;;;;47.95;25.27;;;;;;;-1.27;100.00;97130.09;4979890;28;20129;-68
2022/12/20 07:26:59;;;;;;;55.50;29.20;;;;;;;-1.23;100.00;97139.97;4986763;28;20271;-68
2022/12/20 07:29:25;;;;;;;54.25;30.05;;;;;;;-1.06;100.00;97138.78;4980744;28;20046;-68
2022/12/20 07:31:51;;;;;;;49.03;28.33;;;;;;;-0.91;100.00;97154.81;4985357;28;20045;-66
2022/12/20 07:34:17;;;;;;;63.53;28.90;;;;;;;-0.89;100.00;97147.25;4980086;28;20051;-66
2022/12/20 07:36:43;;;;;;;62.33;31.65;;;;;;;-0.73;100.00;97160.59;4985392;28;20042;-67
2022/12/20 07:39:09;;;;;;;62.60;31.38;;;;;;;-0.60;100.00;97154.56;4982378;28;20049;-67
2022/12/20 07:41:34;;;;;;;56.28;29.48;;;;;;;-0.60;100.00;97157.25;4987759;28;20042;-68
2022/12/20 07:43:59;;;;;;;105.50;41.15;;;;;;;-0.49;100.00;97141.81;4987615;28;20058;-68
2022/12/20 07:46:25;;;;;;;153.68;60.08;;;;;;;-0.45;100.00;97146.34;4980396;28;20104;-68
2022/12/20 07:48:51;;;;;;;94.28;41.80;;;;;;;-0.24;100.00;97135.38;4987062;28;20065;-68
2022/12/20 07:51:26;;;;;;;55.55;27.30;;;;;;;-0.26;100.00;97138.34;4982125;28;20046;-67
2022/12/20 07:54:02;;;;;;;54.55;28.80;;;;;;;-0.31;100.00;97132.22;4985485;28;20483;-69
2022/12/20 07:56:31;;;;;;;46.15;25.10;;;;;;;-0.20;100.00;97141.78;4983753;28;20092;-67
2022/12/20 07:58:59;;;;;;;47.65;23.38;;;;;;;-0.17;100.00;97143.09;4986924;28;20101;-66
2022/12/20 08:01:26;;;;;;;46.10;26.30;;;;;;;-0.16;100.00;97142.00;4978631;28;20045;-67
2022/12/20 08:03:56;;;;;;;43.05;25.02;;;;;;;-0.14;100.00;97145.25;4986619;28;20038;-67
2022/12/20 08:06:21;;;;;;;41.20;21.63;;;;;;;0.05;100.00;97139.88;4980643;28;20210;-66
2022/12/20 08:08:51;;;;;;;37.92;23.13;;;;;;;0.16;100.00;97146.75;4985884;28;20133;-66
2022/12/20 08:11:18;;;;;;;43.47;23.80;;;;;;;0.09;100.00;97157.88;4980994;28;20533;-67
2022/12/20 08:13:44;;;;;;;40.33;21.85;;;;;;;0.11;100.00;97155.72;4987276;28;20105;-67
2022/12/20 08:16:09;;;;;;;48.92;24.50;;;;;;;0.17;100.00;97148.38;4995513;28;20495;-66
2022/12/20 08:18:35;;;;;;;38.72;21.17;;;;;;;-0.02;100.00;97138.34;4985085;28;20050;-66
2022/12/20 08:21:00;;;;;;;41.38;21.60;;;;;;;0.09;100.00;97147.13;4984741;28;20038;-67
2022/12/20 08:23:25;;;;;;;39.15;21.10;;;;;;;0.07;100.00;97145.78;4974393;28;20054;-67
2022/12/20 08:25:51;;;;;;;41.40;22.77;;;;;;;0.03;100.00;97142.88;4966108;28;20121;-67
2022/12/20 08:28:16;;;;;;;39.83;22.67;;;;;;;0.11;100.00;97152.19;4959881;28;20065;-67
2022/12/20 08:30:42;;;;;;;36.20;20.90;;;;;;;0.29;100.00;97151.44;4966280;28;20551;-67
2022/12/20 08:33:08;;;;;;;39.72;21.65;;;;;;;0.37;100.00;97152.69;4959728;28;20125;-67
2022/12/20 08:35:34;;;;;;;41.42;23.77;;;;;;;0.46;100.00;97147.47;4965002;28;20051;-69
2022/12/20 08:37:59;;;;;;;37.45;20.60;;;;;;;0.62;100.00;97139.97;4965500;28;20089;-67
2022/12/20 08:40:24;;;;;;;38.67;20.83;;;;;;;0.55;100.00;97143.81;4959941;28;20070;-67
2022/12/20 08:42:50;;;;;;;39.22;20.95;;;;;;;0.26;100.00;97141.25;4966707;28;20047;-68
2022/12/20 08:45:17;;;;;;;33.25;19.25;;;;;;;0.47;100.00;97131.00;4967871;28;20046;-68
2022/12/20 08:47:43;;;;;;;39.83;21.77;;;;;;;0.58;100.00;97118.19;4965571;28;20117;-68
2022/12/20 08:50:08;;;;;;;37.83;21.75;;;;;;;0.51;100.00;97113.16;4961259;28;20047;-65
2022/12/20 08:52:34;;;;;;;40.88;22.55;;;;;;;0.34;100.00;97116.38;4970870;28;20065;-68
2022/12/20 08:54:59;;;;;;;38.33;20.90;;;;;;;0.50;100.00;97116.94;4971924;28;20046;-68
2022/12/20 08:57:25;;;;;;;34.47;20.55;;;;;;;0.61;100.00;97122.19;4962935;28;20043;-68
2022/12/20 08:59:50;;;;;;;35.88;20.80;;;;;;;0.73;100.00;97122.56;4968960;28;20438;-68
2022/12/20 09:02:16;;;;;;;37.15;20.50;;;;;;;0.90;100.00;97122.03;4959266;28;20035;-70
2022/12/20 09:04:43;;;;;;;39.33;22.58;;;;;;;1.05;100.00;97121.00;4966854;28;20051;-68
2022/12/20 09:07:09;;;;;;;36.30;20.58;;;;;;;1.02;100.00;97125.06;4960342;28;20501;-67
2022/12/20 09:09:34;;;;;;;36.45;19.95;;;;;;;1.02;100.00;97122.38;4966773;28;20050;-67
2022/12/20 09:12:00;;;;;;;36.42;20.35;;;;;;;1.29;100.00;97118.16;4964516;28;20391;-68
2022/12/20 09:14:25;;;;;;;34.80;18.90;;;;;;;1.46;100.00;97120.28;4959940;28;20109;-67
2022/12/20 09:16:51;;;;;;;35.95;20.10;;;;;;;1.13;100.00;97109.53;4965393;28;20134;-67
2022/12/20 09:19:16;;;;;;;39.30;21.45;;;;;;;1.01;100.00;97119.97;4959906;28;20062;-67
2022/12/20 09:21:41;;;;;;;42.25;22.58;;;;;;;0.98;100.00;97120.56;4949133;28;20038;-68
2022/12/20 09:24:08;;;;;;;50.97;22.83;;;;;;;0.63;100.00;97117.31;4970779;28;20053;-67
2022/12/20 09:26:34;;;;;;;42.75;22.83;;;;;;;0.56;100.00;97117.69;4982755;28;20082;-68
2022/12/20 09:29:00;;;;;;;39.55;23.23;;;;;;;0.66;100.00;97105.94;4985172;28;20050;-67
2022/12/20 09:31:26;;;;;;;42.47;24.27;;;;;;;0.82;100.00;97120.00;4979579;28;20054;-66
2022/12/20 09:33:57;;;;;;;35.78;21.85;;;;;;;1.10;100.00;97123.63;4983489;28;20104;-66
2022/12/20 09:36:24;;;;;;;258.20;143.27;;;;;;;1.17;100.00;97129.44;4978417;28;20295;-69
2022/12/20 09:38:50;;;;;;;53.35;29.77;;;;;;;1.29;100.00;97137.06;4984052;28;20053;-69
2022/12/20 09:41:36;;;;;;;41.65;21.85;;;;;;;1.61;100.00;97117.34;4978657;28;20046;-69
2022/12/20 09:44:28;;;;;;;36.40;21.13;;;;;;;1.58;100.00;97114.44;4981862;28;20038;-71
2022/12/20 09:47:09;;;;;;;36.88;20.95;;;;;;;2.12;100.00;97114.75;4965238;28;20053;-69
2022/12/20 09:49:40;;;;;;;35.33;18.98;;;;;;;2.74;100.00;97125.03;4965414;28;20045;-69
2022/12/20 09:52:39;;;;;;;33.90;18.63;;;;;;;3.04;100.00;97127.06;4962124;28;20043;-68
2022/12/20 09:55:23;;;;;;;34.60;18.42;;;;;;;3.03;100.00;97121.97;4959246;28;20043;-69
2022/12/20 09:58:14;;;;;;;29.52;18.33;;;;;;;2.68;100.00;97113.53;4980138;28;20054;-69
2022/12/20 10:00:44;;;;;;;39.05;21.02;;;;;;;1.42;100.00;97111.19;4965823;28;20043;-69
2022/12/20 10:03:18;;;;;;;38.95;22.30;;;;;;;1.09;100.00;97100.44;4967683;28;20041;-68
2022/12/20 10:05:53;;;;;;;41.92;24.80;;;;;;;1.24;100.00;97100.19;4963408;28;20419;-69
2022/12/20 10:08:48;;;;;;;48.60;24.70;;;;;;;1.50;100.00;97086.22;4967368;28;20042;-69
2022/12/20 10:11:56;;;;;;;36.28;22.00;;;;;;;1.70;100.00;97075.03;4945156;28;20472;-67
2022/12/20 10:14:37;;;;;;;37.30;21.48;;;;;;;1.84;100.00;97064.25;4960634;28;20982;-68
2022/12/20 10:17:41;;;;;;;41.28;21.65;;;;;;;1.86;100.00;97058.53;4961729;28;20047;-68
2022/12/20 10:20:26;;;;;;;37.20;21.50;;;;;;;2.16;100.00;97062.50;4977150;28;20038;-67
2022/12/20 10:23:01;;;;;;;53.90;30.00;;;;;;;2.19;100.00;97067.28;4984035;28;20045;-67
2022/12/20 10:25:32;;;;;;;40.83;21.67;;;;;;;2.42;100.00;97056.53;4964237;28;20535;-67
2022/12/20 10:28:01;;;;;;;46.65;23.15;;;;;;;2.58;100.00;97055.09;4970645;28;20113;-67
2022/12/20 10:30:28;;;;;;;33.70;20.83;;;;;;;2.79;100.00;97058.13;4959510;28;20037;-67
2022/12/20 10:32:55;;;;;;;33.75;20.85;;;;;;;2.76;100.00;97047.91;4965243;28;20035;-69
2022/12/20 10:35:30;;;;;;;42.45;23.77;;;;;;;2.72;100.00;97051.53;4959213;28;20587;-69
2022/12/20 10:37:56;;;;;;;42.05;25.50;;;;;;;2.65;100.00;97050.06;4962564;28;20052;-68
2022/12/20 10:40:33;;;;;;;38.58;22.98;;;;;;;2.89;100.00;97035.41;4959679;28;20085;-68
2022/12/20 10:43:00;;;;;;;40.00;23.02;;;;;;;2.94;100.00;97037.22;4966368;28;20103;-69
2022/12/20 10:45:41;;;;;;;44.45;25.00;;;;;;;2.85;100.00;97039.84;4970883;28;20042;-69
2022/12/20 10:48:44;;;;;;;43.40;23.58;;;;;;;2.86;100.00;97031.44;4973857;28;20038;-68
2022/12/20 10:51:13;;;;;;;42.47;22.85;;;;;;;3.10;100.00;97024.06;4967372;28;20075;-68
2022/12/20 10:53:55;;;;;;;34.70;21.15;;;;;;;3.12;100.00;97038.13;4965736;28;20097;-67
2022/12/20 10:56:20;;;;;;;36.42;20.20;;;;;;;3.21;100.00;97026.22;4963477;28;20046;-67
2022/12/20 10:59:15;;;;;;;34.67;18.70;;;;;;;3.31;100.00;97021.66;4976616;28;20049;-67
2022/12/20 11:01:43;;;;;;;32.38;18.30;;;;;;;3.26;100.00;97022.59;4956490;28;20046;-67
2022/12/20 11:04:34;;;;;;;38.17;18.45;;;;;;;3.32;100.00;97015.13;4975342;28;20035;-67
2022/12/20 11:07:02;;;;;;;35.75;20.33;;;;;;;3.24;100.00;97008.53;4982842;28;20864;-67
2022/12/20 11:09:32;;;;;;;36.45;20.42;;;;;;;3.34;100.00;97010.19;4972452;28;20050;-70
2022/12/20 11:12:00;;;;;;;40.05;21.75;;;;;;;3.49;100.00;97001.66;4975537;28;20030;-68
2022/12/20 11:14:26;;;;;;;48.28;27.45;;;;;;;2.90;100.00;96992.94;4971140;28;20051;-68
2022/12/20 11:16:54;;;;;;;41.53;23.98;;;;;;;2.38;100.00;96988.78;4981358;28;20057;-68
2022/12/20 11:19:37;;;;;;;39.17;23.23;;;;;;;2.48;100.00;96985.84;4978103;28;20489;-68
2022/12/20 11:22:15;;;;;;;42.50;24.80;;;;;;;2.24;100.00;96988.81;5011556;28;20041;-71
2022/12/20 11:24:58;;;;;;;46.35;26.75;;;;;;;2.31;100.00;96985.69;4980264;28;20050;-71
2022/12/20 11:27:39;;;;;;;43.97;24.80;;;;;;;2.60;100.00;96970.97;4972713;28;20554;-69